createdAt,value
2023-01-30T00:00:56.478Z,22.13
2023-01-30T00:03:42.314Z,22.33
2023-01-30T00:06:27.939Z,24.25
2023-01-30T00:09:15.135Z,19.15
2023-01-30T00:12:00.616Z,17.27
2023-01-30T00:14:46.088Z,17.45
2023-01-30T00:17:31.551Z,18.40
2023-01-30T00:20:17.394Z,20.35
2023-01-30T00:23:03.461Z,19.40
2023-01-30T00:25:49.093Z,23.23
2023-01-30T00:28:34.533Z,18.10
2023-01-30T00:31:20.026Z,29.50
2023-01-30T00:34:05.306Z,19.75
2023-01-30T00:36:58.955Z,23.70
2023-01-30T00:39:52.871Z,21.30
2023-01-30T00:42:56.759Z,20.15
2023-01-30T00:46:03.468Z,20.58
2023-01-30T00:48:49.276Z,20.58
2023-01-30T00:51:34.752Z,20.52
2023-01-30T00:54:20.530Z,27.02
2023-01-30T00:57:05.825Z,23.02
2023-01-30T00:59:53.595Z,13.65
2023-01-30T01:02:41.752Z,23.23
2023-01-30T01:05:33.319Z,19.67
2023-01-30T01:08:18.570Z,28.73
2023-01-30T01:11:04.312Z,24.27
2023-01-30T01:13:50.663Z,20.10
2023-01-30T01:16:36.736Z,22.05
2023-01-30T01:19:25.734Z,20.33
2023-01-30T01:22:12.149Z,27.02
2023-01-30T01:24:57.703Z,18.25
2023-01-30T01:27:46.229Z,21.63
2023-01-30T01:30:31.739Z,19.10
2023-01-30T01:33:17.380Z,19.25
2023-01-30T01:36:04.661Z,19.10
2023-01-30T01:38:50.235Z,19.83
2023-01-30T01:41:35.795Z,22.20
2023-01-30T01:44:23.908Z,20.95
2023-01-30T01:47:10.068Z,20.77
2023-01-30T01:49:56.392Z,17.42
2023-01-30T01:52:43.261Z,21.45
2023-01-30T01:55:30.350Z,21.05
2023-01-30T01:58:31.976Z,25.52
2023-01-30T02:01:17.509Z,23.98
2023-01-30T02:04:10.052Z,21.25
2023-01-30T02:06:55.580Z,38.25
2023-01-30T02:09:41.236Z,29.85
2023-01-30T02:12:27.040Z,31.60
2023-01-30T02:15:12.917Z,33.67
2023-01-30T02:17:58.453Z,36.15
2023-01-30T02:21:21.673Z,28.75
2023-01-30T02:24:44.754Z,27.45
2023-01-30T02:27:40.131Z,27.73
2023-01-30T02:33:51.432Z,27.30
2023-01-30T02:36:50.891Z,24.42
2023-01-30T02:39:50.828Z,25.60
2023-01-30T02:42:51.365Z,22.70
2023-01-30T02:45:48.056Z,18.08
2023-01-30T02:49:00.094Z,22.10
2023-01-30T02:51:50.733Z,22.70
2023-01-30T02:54:36.242Z,23.00
2023-01-30T02:57:24.252Z,23.67
2023-01-30T03:00:16.245Z,26.90
2023-01-30T03:03:20.139Z,21.92
2023-01-30T03:06:34.951Z,25.83
2023-01-30T03:09:48.024Z,22.92
2023-01-30T03:12:52.818Z,23.25
2023-01-30T03:15:48.180Z,30.02
2023-01-30T03:18:33.571Z,23.48
2023-01-30T03:21:19.527Z,28.58
2023-01-30T03:24:05.584Z,32.08
2023-01-30T03:26:58.330Z,22.55
2023-01-30T03:29:48.133Z,23.58
2023-01-30T03:32:34.007Z,22.63
2023-01-30T03:35:19.744Z,23.73
2023-01-30T03:38:05.500Z,23.75
2023-01-30T03:40:50.884Z,22.90
2023-01-30T03:43:36.274Z,28.08
2023-01-30T03:46:23.851Z,23.48
2023-01-30T03:49:09.117Z,28.00
2023-01-30T03:51:54.628Z,18.55
2023-01-30T03:54:41.098Z,20.35
2023-01-30T03:57:27.116Z,21.75
2023-01-30T04:00:13.279Z,16.17
2023-01-30T04:03:01.921Z,25.05
2023-01-30T04:05:47.345Z,23.13
2023-01-30T04:08:33.100Z,26.73
2023-01-30T04:11:23.772Z,20.83
2023-01-30T04:14:09.761Z,27.00
2023-01-30T04:17:04.443Z,23.15
2023-01-30T04:20:12.170Z,24.13
2023-01-30T04:23:02.976Z,18.77
2023-01-30T04:25:49.103Z,28.00
2023-01-30T04:28:37.677Z,21.30
2023-01-30T04:31:23.218Z,18.15
2023-01-30T04:34:23.977Z,18.27
2023-01-30T04:37:09.780Z,33.47
2023-01-30T04:39:58.849Z,23.88
2023-01-30T04:42:46.061Z,18.63
2023-01-30T04:45:54.368Z,12.68
2023-01-30T04:48:40.388Z,14.32
2023-01-30T04:51:28.385Z,11.60
2023-01-30T04:54:18.527Z,12.75
2023-01-30T04:57:04.477Z,16.02
2023-01-30T04:59:50.137Z,18.85
2023-01-30T05:02:36.859Z,19.05
2023-01-30T05:05:26.922Z,16.30
2023-01-30T05:08:12.470Z,20.38
2023-01-30T05:10:59.999Z,21.27
2023-01-30T05:13:45.761Z,20.60
2023-01-30T05:16:31.024Z,13.60
2023-01-30T05:19:19.064Z,18.45
2023-01-30T05:22:07.684Z,20.40
2023-01-30T05:24:53.282Z,25.38
2023-01-30T05:27:38.587Z,22.38
2023-01-30T05:30:24.212Z,22.95
2023-01-30T05:33:13.795Z,19.77
2023-01-30T05:35:59.738Z,21.80
2023-01-30T05:38:47.587Z,21.85
2023-01-30T05:41:33.181Z,30.20
2023-01-30T05:44:18.689Z,35.72
2023-01-30T05:47:03.876Z,35.88
2023-01-30T05:49:49.573Z,25.13
2023-01-30T05:52:35.079Z,33.05
2023-01-30T05:55:20.937Z,37.45
2023-01-30T05:58:06.065Z,40.78
2023-01-30T06:00:51.850Z,29.80
2023-01-30T06:03:37.775Z,28.73
2023-01-30T06:06:24.319Z,34.92
2023-01-30T06:09:11.059Z,32.05
2023-01-30T06:11:56.679Z,35.88
2023-01-30T06:14:42.171Z,29.90
2023-01-30T06:17:29.760Z,36.15
2023-01-30T06:20:20.936Z,31.65
2023-01-30T06:23:06.318Z,35.80
2023-01-30T06:25:55.760Z,36.00
2023-01-30T06:28:44.368Z,34.35
2023-01-30T06:31:30.029Z,35.15
2023-01-30T06:34:15.529Z,32.17
2023-01-30T06:37:01.036Z,28.75
2023-01-30T06:39:46.583Z,27.15
2023-01-30T06:42:34.781Z,45.78
2023-01-30T06:45:20.867Z,41.05
2023-01-30T06:48:07.083Z,29.70
2023-01-30T06:50:52.870Z,36.13
2023-01-30T06:53:38.272Z,40.65
2023-01-30T06:56:23.890Z,44.58
2023-01-30T06:59:09.772Z,32.10
2023-01-30T07:01:55.117Z,26.00
2023-01-30T07:04:41.723Z,27.77
2023-01-30T07:07:29.289Z,33.08
2023-01-30T07:10:14.747Z,37.10
2023-01-30T07:13:00.276Z,29.08
2023-01-30T07:15:46.695Z,32.97
2023-01-30T07:18:32.908Z,41.63
2023-01-30T07:21:18.387Z,32.05
2023-01-30T07:24:04.081Z,24.45
2023-01-30T07:26:49.303Z,36.10
2023-01-30T07:29:36.012Z,41.08
2023-01-30T07:32:24.557Z,34.65
2023-01-30T07:35:10.194Z,30.85
2023-01-30T07:37:55.792Z,23.92
2023-01-30T07:40:40.843Z,24.77
2023-01-30T07:43:26.718Z,25.80
2023-01-30T07:46:12.015Z,34.92
2023-01-30T07:48:59.606Z,33.53
2023-01-30T07:51:45.100Z,29.88
2023-01-30T07:54:30.563Z,33.58
2023-01-30T07:57:16.123Z,34.30
2023-01-30T08:00:02.699Z,32.42
2023-01-30T08:02:54.306Z,27.65
2023-01-30T08:05:39.675Z,29.60
2023-01-30T08:08:25.355Z,30.83
2023-01-30T08:11:13.229Z,24.85
2023-01-30T08:13:58.718Z,23.60
2023-01-30T08:16:44.409Z,25.98
2023-01-30T08:19:29.573Z,31.13
2023-01-30T08:22:17.324Z,31.98
2023-01-30T08:25:02.858Z,28.17
2023-01-30T08:27:49.286Z,31.70
2023-01-30T08:30:34.569Z,34.65
2023-01-30T08:33:21.517Z,29.67
2023-01-30T08:36:07.249Z,33.83
2023-01-30T08:38:53.456Z,28.58
2023-01-30T08:41:38.829Z,25.20
2023-01-30T08:44:25.896Z,27.88
2023-01-30T08:47:13.932Z,26.52
2023-01-30T08:49:59.323Z,27.00
2023-01-30T08:52:44.876Z,38.72
2023-01-30T08:55:30.181Z,32.03
2023-01-30T08:58:15.718Z,29.10
2023-01-30T09:01:06.247Z,28.13
2023-01-30T09:03:51.629Z,22.05
2023-01-30T09:06:37.207Z,25.58
2023-01-30T09:09:22.472Z,23.90
2023-01-30T09:12:08.036Z,31.30
2023-01-30T09:14:55.554Z,30.52
2023-01-30T09:17:41.193Z,34.55
2023-01-30T09:20:26.611Z,28.60
2023-01-30T09:23:12.287Z,32.33
2023-01-30T09:25:58.146Z,18.75
2023-01-30T09:28:43.441Z,25.58
2023-01-30T09:31:28.767Z,22.95
2023-01-30T09:34:14.157Z,28.75
2023-01-30T09:37:05.159Z,30.05
2023-01-30T09:39:53.510Z,26.13
2023-01-30T09:42:51.076Z,23.35
2023-01-30T09:45:42.000Z,27.85
2023-01-30T09:48:47.471Z,29.88
2023-01-30T09:52:14.010Z,27.75
2023-01-30T09:55:23.930Z,25.35
2023-01-30T09:58:18.653Z,30.52
2023-01-30T10:01:08.136Z,27.13
2023-01-30T10:04:15.072Z,28.00
2023-01-30T10:07:27.402Z,24.77
2023-01-30T10:10:51.041Z,22.90
2023-01-30T10:13:55.424Z,25.08
2023-01-30T10:17:10.592Z,35.40
2023-01-30T10:20:07.992Z,41.67
2023-01-30T10:23:22.356Z,29.60
2023-01-30T10:26:16.122Z,37.92
2023-01-30T10:29:18.368Z,35.17
2023-01-30T10:32:28.873Z,38.70
2023-01-30T10:35:20.230Z,36.20
2023-01-30T10:38:26.277Z,30.38
2023-01-30T10:44:15.068Z,26.88
2023-01-30T10:47:45.623Z,29.13
2023-01-30T10:50:49.589Z,28.38
2023-01-30T10:53:37.823Z,29.52
2023-01-30T10:56:37.166Z,26.52
2023-01-30T10:59:24.456Z,34.28
2023-01-30T11:02:12.801Z,31.17
2023-01-30T11:05:25.968Z,31.10
2023-01-30T11:08:30.617Z,36.90
2023-01-30T11:11:46.964Z,38.50
2023-01-30T11:15:04.511Z,37.83
2023-01-30T11:17:49.876Z,35.40
2023-01-30T11:20:46.690Z,40.58
2023-01-30T11:23:39.124Z,30.30
2023-01-30T11:26:32.073Z,26.58
2023-01-30T11:29:31.936Z,44.00
2023-01-30T11:32:26.249Z,34.58
2023-01-30T11:35:14.972Z,32.42
2023-01-30T11:38:34.610Z,30.75
2023-01-30T11:41:22.071Z,35.17
2023-01-30T11:44:10.934Z,38.20
2023-01-30T11:47:01.282Z,28.40
2023-01-30T11:50:04.149Z,30.60
2023-01-30T11:53:07.361Z,30.15
2023-01-30T11:56:04.180Z,25.08
2023-01-30T11:59:14.571Z,26.98
2023-01-30T12:02:32.692Z,24.25
2023-01-30T12:05:24.080Z,29.35
2023-01-30T12:08:39.338Z,26.98
2023-01-30T12:11:28.499Z,28.40
2023-01-30T12:14:40.087Z,29.17
2023-01-30T12:17:51.103Z,31.05
2023-01-30T12:21:00.301Z,23.88
2023-01-30T12:23:52.546Z,20.13
2023-01-30T12:26:46.160Z,26.42
2023-01-30T12:29:40.874Z,26.38
2023-01-30T12:32:28.966Z,30.15
2023-01-30T12:35:19.011Z,23.73
2023-01-30T12:38:21.400Z,25.50
2023-01-30T12:41:45.531Z,30.20
2023-01-30T12:45:01.616Z,31.80
2023-01-30T12:51:17.174Z,30.13
2023-01-30T12:54:25.265Z,32.40
2023-01-30T12:57:20.137Z,24.27
2023-01-30T13:00:36.350Z,29.80
2023-01-30T13:06:43.380Z,26.48
2023-01-30T13:09:31.633Z,25.15
2023-01-30T13:13:03.964Z,36.47
2023-01-30T13:16:01.224Z,24.25
2023-01-30T13:19:23.145Z,23.40
2023-01-30T13:22:31.169Z,34.17
2023-01-30T13:25:32.778Z,26.00
2023-01-30T13:28:28.993Z,26.83
2023-01-30T13:31:21.448Z,29.42
2023-01-30T13:34:12.774Z,33.55
2023-01-30T13:37:21.405Z,36.42
2023-01-30T13:40:35.363Z,34.33
2023-01-30T13:43:44.186Z,25.90
2023-01-30T13:46:35.787Z,31.70
2023-01-30T13:50:00.439Z,37.75
2023-01-30T13:53:28.193Z,29.25
2023-01-30T13:56:44.630Z,29.95
2023-01-30T13:59:46.499Z,33.63
2023-01-30T14:02:31.875Z,33.45
2023-01-30T14:05:52.985Z,35.75
2023-01-30T14:08:48.203Z,37.22
2023-01-30T14:11:44.888Z,32.85
2023-01-30T14:14:38.339Z,37.25
2023-01-30T14:17:24.379Z,33.83
2023-01-30T14:20:19.999Z,34.33
2023-01-30T14:23:16.233Z,32.92
2023-01-30T14:26:11.565Z,41.38
2023-01-30T14:28:58.426Z,20.92
2023-01-30T14:31:51.118Z,42.38
2023-01-30T14:35:02.389Z,33.20
2023-01-30T14:37:51.122Z,29.60
2023-01-30T14:40:38.685Z,29.88
2023-01-30T14:43:36.378Z,34.50
2023-01-30T14:46:21.771Z,31.75
2023-01-30T14:49:24.903Z,32.92
2023-01-30T14:52:42.702Z,38.55
2023-01-30T14:55:31.456Z,35.65
2023-01-30T14:58:18.794Z,38.10
2023-01-30T15:01:08.130Z,30.55
2023-01-30T15:03:54.137Z,38.63
2023-01-30T15:06:39.333Z,31.55
2023-01-30T15:09:27.604Z,47.55
2023-01-30T15:12:34.112Z,31.58
2023-01-30T15:15:47.051Z,38.38
2023-01-30T15:18:51.995Z,34.28
2023-01-30T15:21:52.442Z,37.77
2023-01-30T15:24:47.009Z,32.78
2023-01-30T15:27:52.424Z,43.50
2023-01-30T15:31:05.943Z,43.63
2023-01-30T15:33:53.806Z,33.13
2023-01-30T15:36:39.232Z,35.35
2023-01-30T15:39:28.312Z,34.55
2023-01-30T15:42:16.140Z,43.42
2023-01-30T15:45:30.043Z,37.50
2023-01-30T15:48:39.774Z,35.42
2023-01-30T15:51:30.470Z,39.10
2023-01-30T15:54:19.262Z,37.67
2023-01-30T15:57:13.062Z,45.67
2023-01-30T15:59:59.233Z,40.15
2023-01-30T16:02:44.597Z,41.05
2023-01-30T16:05:30.523Z,35.53
2023-01-30T16:08:32.873Z,42.85
2023-01-30T16:11:42.718Z,43.25
2023-01-30T16:14:28.026Z,28.77
2023-01-30T16:17:17.843Z,40.08
2023-01-30T16:20:03.858Z,49.97
2023-01-30T16:22:50.932Z,46.92
2023-01-30T16:25:36.261Z,47.80
2023-01-30T16:28:26.537Z,34.30
2023-01-30T16:31:12.596Z,38.30
2023-01-30T16:33:58.797Z,36.97
2023-01-30T16:36:47.569Z,40.60
2023-01-30T16:39:35.428Z,46.17
2023-01-30T16:42:25.628Z,36.85
2023-01-30T16:45:33.674Z,33.30
2023-01-30T16:48:24.798Z,41.90
2023-01-30T16:51:21.354Z,34.92
2023-01-30T16:54:19.088Z,38.53
2023-01-30T16:57:21.300Z,36.25
2023-01-30T17:00:22.657Z,48.90
2023-01-30T17:03:34.287Z,33.08
2023-01-30T17:06:50.397Z,33.92
2023-01-30T17:12:37.419Z,41.30
2023-01-30T17:15:22.952Z,32.63
2023-01-30T17:18:09.835Z,34.67
2023-01-30T17:20:55.462Z,28.10
2023-01-30T17:23:47.810Z,43.50
2023-01-30T17:26:33.892Z,35.08
2023-01-30T17:29:41.003Z,32.85
2023-01-30T17:32:25.807Z,26.17
2023-01-30T17:35:14.294Z,42.22
2023-01-30T17:38:05.191Z,39.85
2023-01-30T17:40:51.314Z,37.92
2023-01-30T17:43:36.859Z,37.90
2023-01-30T17:46:34.348Z,47.13
2023-01-30T17:49:22.436Z,45.00
2023-01-30T17:52:13.641Z,39.67
2023-01-30T17:54:59.039Z,52.30
2023-01-30T17:57:47.744Z,39.47
2023-01-30T18:00:33.609Z,47.70
2023-01-30T18:03:19.413Z,37.95
2023-01-30T18:06:11.211Z,39.58
2023-01-30T18:08:56.997Z,38.15
2023-01-30T18:11:43.639Z,44.33
2023-01-30T18:14:32.102Z,43.22
2023-01-30T18:17:17.877Z,50.67
2023-01-30T18:20:07.124Z,34.22
2023-01-30T18:22:55.387Z,37.58
2023-01-30T18:25:40.768Z,38.00
2023-01-30T18:28:30.228Z,26.60
2023-01-30T18:31:19.130Z,42.28
2023-01-30T18:34:07.245Z,36.92
2023-01-30T18:36:52.469Z,40.83
2023-01-30T18:39:44.233Z,43.65
2023-01-30T18:42:29.753Z,39.63
2023-01-30T18:45:15.477Z,38.67
2023-01-30T18:48:00.942Z,45.67
2023-01-30T18:50:48.504Z,34.30
2023-01-30T18:53:34.021Z,22.35
2023-01-30T18:56:23.108Z,36.08
2023-01-30T18:59:10.119Z,36.97
2023-01-30T19:01:55.408Z,33.05
2023-01-30T19:04:41.051Z,30.65
2023-01-30T19:07:26.702Z,31.48
2023-01-30T19:10:17.472Z,33.50
2023-01-30T19:13:22.275Z,31.58
2023-01-30T19:16:07.656Z,37.97
2023-01-30T19:18:54.332Z,44.00
2023-01-30T19:21:39.921Z,39.40
2023-01-30T19:24:25.982Z,40.55
2023-01-30T19:27:36.119Z,26.15
2023-01-30T19:30:20.503Z,25.15
2023-01-30T19:33:06.292Z,38.17
2023-01-30T19:35:51.836Z,32.80
2023-01-30T19:38:41.326Z,22.58
2023-01-30T19:41:29.262Z,36.55
2023-01-30T19:44:14.448Z,25.85
2023-01-30T19:47:00.448Z,32.38
2023-01-30T19:49:46.076Z,32.22
2023-01-30T19:52:41.186Z,28.55
2023-01-30T19:55:26.977Z,35.03
2023-01-30T19:58:15.770Z,32.15
2023-01-30T20:01:06.291Z,28.33
2023-01-30T20:03:51.450Z,31.10
2023-01-30T20:06:38.263Z,26.08
2023-01-30T20:09:24.252Z,43.83
2023-01-30T20:12:09.451Z,36.03
2023-01-30T20:14:55.171Z,22.38
2023-01-30T20:17:40.440Z,28.58
2023-01-30T20:20:25.823Z,30.48
2023-01-30T20:23:14.147Z,31.60
2023-01-30T20:26:02.761Z,29.27
2023-01-30T20:28:49.281Z,28.50
2023-01-30T20:31:34.874Z,25.80
2023-01-30T20:34:20.549Z,27.25
2023-01-30T20:37:05.919Z,25.65
2023-01-30T20:39:53.277Z,37.42
2023-01-30T20:42:38.657Z,38.35
2023-01-30T20:45:24.204Z,28.77
2023-01-30T20:48:09.628Z,36.15
2023-01-30T20:50:55.013Z,33.17
2023-01-30T20:53:47.889Z,34.22
2023-01-30T20:56:39.784Z,32.70
2023-01-30T20:59:27.322Z,28.02
2023-01-30T21:02:12.961Z,41.08
2023-01-30T21:04:58.551Z,31.08
2023-01-30T21:07:44.052Z,38.22
2023-01-30T21:10:29.318Z,33.65
2023-01-30T21:13:14.896Z,30.27
2023-01-30T21:16:07.538Z,32.38
2023-01-30T21:18:55.056Z,26.73
2023-01-30T21:21:50.986Z,35.38
2023-01-30T21:24:39.466Z,20.77
2023-01-30T21:27:24.980Z,28.20
2023-01-30T21:30:10.956Z,27.13
2023-01-30T21:32:57.618Z,32.10
2023-01-30T21:35:43.190Z,30.20
2023-01-30T21:38:48.159Z,31.20
2023-01-30T21:41:56.673Z,33.70
2023-01-30T21:44:42.166Z,41.05
2023-01-30T21:47:30.183Z,27.48
2023-01-30T21:50:16.154Z,26.58
2023-01-30T21:53:02.400Z,25.70
2023-01-30T21:55:52.146Z,29.65
2023-01-30T21:58:37.664Z,28.92
2023-01-30T22:01:23.038Z,32.90
2023-01-30T22:04:13.888Z,25.98
2023-01-30T22:06:59.122Z,46.08
2023-01-30T22:09:45.180Z,32.75
2023-01-30T22:12:32.375Z,36.08
2023-01-30T22:15:20.913Z,25.40
2023-01-30T22:18:10.589Z,29.90
2023-01-30T22:21:17.918Z,23.80
2023-01-30T22:24:07.575Z,23.60
2023-01-30T22:26:53.172Z,30.45
2023-01-30T22:29:39.973Z,43.63
2023-01-30T22:32:25.687Z,29.23
2023-01-30T22:35:11.460Z,30.80
2023-01-30T22:37:56.845Z,32.63
2023-01-30T22:40:42.215Z,25.27
2023-01-30T22:43:28.948Z,28.15
2023-01-30T22:46:15.895Z,43.42
2023-01-30T22:49:03.000Z,32.00
2023-01-30T22:51:49.062Z,32.40
2023-01-30T22:54:34.568Z,28.73
2023-01-30T22:57:21.669Z,18.02
2023-01-30T23:00:10.629Z,23.30
2023-01-30T23:02:56.572Z,27.42
2023-01-30T23:05:43.410Z,24.83
2023-01-30T23:08:31.336Z,22.95
2023-01-30T23:11:26.472Z,20.92
2023-01-30T23:14:16.607Z,26.80
2023-01-30T23:17:22.070Z,31.50
2023-01-30T23:22:54.283Z,19.10
2023-01-30T23:25:41.264Z,34.47
2023-01-30T23:28:26.980Z,37.80
2023-01-30T23:31:15.862Z,27.88
2023-01-30T23:34:03.804Z,28.80
2023-01-30T23:36:49.065Z,27.63
2023-01-30T23:39:34.329Z,33.80
2023-01-30T23:42:19.773Z,29.73
2023-01-30T23:45:11.618Z,32.85
2023-01-30T23:47:57.303Z,30.13
2023-01-30T23:50:42.844Z,31.83
2023-01-30T23:53:28.594Z,31.65
2023-01-30T23:56:15.063Z,39.55
2023-01-30T23:59:00.654Z,29.48
